Time;durP1;ratioP1;P1;durP2;ratioP2;P2;SDS_P1;SDS_P2;PMS_P1;PMS_P2;Temp;Humidity;BMP_temperature;BMP_pressure;BME280_temperature;BME280_humidity;BME280_pressure;Samples;Min_cycle;Max_cycle;Signal;HPM_P1;HPM_P2
2023/06/22 00:02:14;;;;;;;6.50;5.78;;;;;;;22.64;73.10;98484.72;5032382;28;20185;-56
2023/06/22 00:04:39;;;;;;;6.28;5.35;;;;;;;22.48;74.26;98490.13;5051579;28;20671;-56
2023/06/22 00:07:05;;;;;;;6.90;4.97;;;;;;;22.49;73.77;98479.41;5052367;28;20236;-57
2023/06/22 00:09:31;;;;;;;5.53;5.10;;;;;;;22.32;74.24;98448.88;5052423;28;20189;-56
2023/06/22 00:11:57;;;;;;;5.22;4.72;;;;;;;22.37;74.66;98480.00;5012532;28;20272;-57
2023/06/22 00:14:22;;;;;;;5.57;4.97;;;;;;;22.18;75.30;98460.19;4973435;28;20271;-57
2023/06/22 00:16:48;;;;;;;6.40;5.72;;;;;;;22.29;75.19;98480.06;4973525;28;20191;-57
2023/06/22 00:19:15;;;;;;;5.43;4.93;;;;;;;22.32;75.46;98490.25;4973429;28;20210;-57
2023/06/22 00:21:40;;;;;;;5.20;4.80;;;;;;;22.25;75.35;98478.78;4973418;28;20209;-57
2023/06/22 00:24:06;;;;;;;5.30;4.90;;;;;;;22.25;75.47;98484.84;4953902;29;20690;-57
2023/06/22 00:26:32;;;;;;;5.55;5.13;;;;;;;22.25;75.59;98490.13;4953989;29;20656;-57
2023/06/22 00:28:57;;;;;;;9.13;5.80;;;;;;;22.18;75.65;98475.19;4953972;29;20671;-57
2023/06/22 00:31:22;;;;;;;5.70;5.20;;;;;;;22.23;75.61;98488.66;4955710;28;20287;-57
2023/06/22 00:33:50;;;;;;;6.03;5.43;;;;;;;22.18;76.08;98498.91;4973208;28;20195;-57
2023/06/22 00:36:17;;;;;;;5.63;5.18;;;;;;;22.21;76.13;98488.84;4973146;28;20259;-57
2023/06/22 00:38:43;;;;;;;6.93;5.10;;;;;;;22.12;77.02;98492.53;4973124;28;20215;-57
2023/06/22 00:41:08;;;;;;;5.88;5.47;;;;;;;22.10;77.25;98499.81;4973049;28;20279;-57
2023/06/22 00:43:34;;;;;;;5.22;4.82;;;;;;;21.99;77.29;98480.94;4988060;28;20188;-57
2023/06/22 00:45:59;;;;;;;5.80;5.30;;;;;;;21.91;77.35;98475.72;5022512;28;20264;-57
2023/06/22 00:48:25;;;;;;;5.47;4.82;;;;;;;22.01;77.81;98497.38;4973091;28;20684;-57
2023/06/22 00:50:55;;;;;;;5.47;5.07;;;;;;;22.02;77.52;98483.22;4953440;29;20188;-57
2023/06/22 00:53:21;;;;;;;5.50;5.10;;;;;;;22.12;78.27;98499.63;4953568;29;20203;-57
2023/06/22 00:55:47;;;;;;;6.03;5.25;;;;;;;21.95;79.63;98488.38;4953724;29;20200;-57
2023/06/22 00:58:13;;;;;;;5.57;5.07;;;;;;;22.11;78.28;98509.34;4953413;29;20196;-57
2023/06/22 01:00:40;;;;;;;5.80;5.30;;;;;;;21.96;77.54;98478.66;4958681;28;20191;-57
2023/06/22 01:03:09;;;;;;;5.90;5.25;;;;;;;22.07;77.25;98492.25;4992016;28;20195;-57
2023/06/22 01:05:36;;;;;;;7.70;5.75;;;;;;;22.18;77.90;98499.75;4991903;28;20705;-57
2023/06/22 01:08:16;;;;;;;5.07;4.68;;;;;;;22.32;76.90;98500.81;4991935;28;20207;-57
2023/06/22 01:10:44;;;;;;;6.78;5.18;;;;;;;22.43;76.11;98498.59;4991952;28;20273;-57
2023/06/22 01:13:32;;;;;;;4.90;4.50;;;;;;;22.39;76.02;98491.19;4991248;28;20198;-56
2023/06/22 01:16:04;;;;;;;5.55;5.05;;;;;;;22.16;76.41;98469.28;4991815;28;20202;-56
2023/06/22 01:18:31;;;;;;;5.93;5.13;;;;;;;22.17;76.94;98476.19;4999469;28;20657;-56
2023/06/22 01:20:57;;;;;;;5.82;5.22;;;;;;;22.17;77.29;98482.28;5056430;28;20182;-56
2023/06/22 01:23:50;;;;;;;5.80;5.30;;;;;;;22.14;77.67;98482.63;5093553;28;20634;-56
2023/06/22 01:26:37;;;;;;;5.97;5.40;;;;;;;22.08;78.07;98490.44;5093275;28;20204;-57
2023/06/22 01:29:04;;;;;;;5.95;5.43;;;;;;;21.96;77.71;98460.22;5093381;28;20244;-57
2023/06/22 01:31:32;;;;;;;5.78;5.18;;;;;;;22.18;77.09;98488.38;5093444;28;20184;-57
2023/06/22 01:34:04;;;;;;;6.13;5.53;;;;;;;22.05;77.82;98462.63;5093267;28;20176;-56
2023/06/22 01:36:32;;;;;;;5.53;5.13;;;;;;;21.89;79.27;98446.06;5093314;28;20172;-56
2023/06/22 01:38:58;;;;;;;6.75;5.53;;;;;;;22.03;78.09;98474.31;5092972;28;20175;-57
2023/06/22 01:41:29;;;;;;;5.85;5.38;;;;;;;22.04;80.02;98473.31;5093221;28;20168;-57
2023/06/22 01:43:56;;;;;;;6.38;5.65;;;;;;;21.89;82.02;98472.41;5030551;28;20200;-57
2023/06/22 01:46:23;;;;;;;8.82;5.70;;;;;;;21.98;81.83;98476.66;5030629;28;20209;-57
2023/06/22 01:48:49;;;;;;;5.05;4.65;;;;;;;21.96;78.41;98460.22;5030444;28;20285;-57
2023/06/22 01:51:15;;;;;;;5.30;4.90;;;;;;;21.95;79.94;98459.38;5030516;28;20718;-56
2023/06/22 01:53:41;;;;;;;8.57;5.25;;;;;;;21.96;79.61;98462.84;5030489;28;20197;-57
2023/06/22 01:56:06;;;;;;;5.78;5.28;;;;;;;21.98;80.39;98490.63;5030466;28;20213;-57
2023/06/22 01:58:33;;;;;;;5.88;5.10;;;;;;;21.84;81.61;98480.84;5030422;28;20185;-57
2023/06/22 02:01:12;;;;;;;6.32;5.72;;;;;;;21.95;80.00;98488.38;5030445;28;20251;-56
2023/06/22 02:03:48;;;;;;;7.00;5.85;;;;;;;21.86;80.63;98475.41;5030364;28;20196;-57
2023/06/22 02:06:42;;;;;;;6.25;5.60;;;;;;;21.85;80.01;98495.66;5030306;28;20225;-56
2023/06/22 02:09:14;;;;;;;6.55;5.20;;;;;;;21.78;79.59;98476.28;5027873;28;20194;-56
2023/06/22 02:11:42;;;;;;;6.15;5.47;;;;;;;21.67;79.33;98473.19;5010415;28;20277;-57
2023/06/22 02:14:08;;;;;;;6.15;5.57;;;;;;;21.64;79.60;98468.25;5021457;28;20220;-57
2023/06/22 02:16:35;;;;;;;6.70;5.85;;;;;;;21.64;80.54;98484.06;5070097;28;20216;-56
2023/06/22 02:19:06;;;;;;;5.82;5.35;;;;;;;21.66;80.38;98497.88;5070083;28;20719;-56
2023/06/22 02:21:32;;;;;;;6.55;5.82;;;;;;;21.74;80.74;98497.88;5070102;28;20246;-56
2023/06/22 02:23:58;;;;;;;6.60;6.00;;;;;;;21.77;80.55;98490.44;5069052;28;20180;-57
2023/06/22 02:26:25;;;;;;;6.97;5.57;;;;;;;21.88;80.33;98497.97;5069863;28;20239;-57
2023/06/22 02:28:50;;;;;;;6.32;5.70;;;;;;;21.82;79.73;98477.59;5069946;28;20725;-57
2023/06/22 02:31:15;;;;;;;5.70;5.20;;;;;;;21.90;79.24;98480.16;5061534;28;20279;-57
2023/06/22 02:33:41;;;;;;;6.20;5.50;;;;;;;21.91;79.31;98481.00;5049717;28;20201;-57
2023/06/22 02:36:09;;;;;;;7.40;5.60;;;;;;;21.91;79.46;98497.59;5049772;28;20188;-57
2023/06/22 02:38:36;;;;;;;6.60;5.50;;;;;;;21.68;80.10;98469.59;5049812;28;20243;-57
2023/06/22 02:41:01;;;;;;;6.03;5.53;;;;;;;21.73;80.46;98497.03;5049288;28;20188;-57
2023/06/22 02:43:27;;;;;;;6.95;5.63;;;;;;;21.66;80.89;98497.88;5068302;28;20651;-57
2023/06/22 02:45:53;;;;;;;6.13;5.53;;;;;;;21.52;80.90;98470.47;5009885;28;20210;-57
2023/06/22 02:48:18;;;;;;;5.90;5.40;;;;;;;21.64;80.76;98487.53;5010168;28;20578;-57
2023/06/22 02:50:44;;;;;;;6.60;6.00;;;;;;;21.70;80.76;98500.03;5010074;28;20217;-57
2023/06/22 02:53:09;;;;;;;6.55;5.40;;;;;;;21.68;80.12;98494.09;5010080;28;20178;-57
2023/06/22 02:55:35;;;;;;;6.32;5.82;;;;;;;21.75;80.58;98504.78;4990270;28;20202;-57
2023/06/22 02:58:04;;;;;;;6.88;5.70;;;;;;;21.75;81.06;98502.16;4990369;28;20187;-57
2023/06/22 03:00:31;;;;;;;5.97;5.47;;;;;;;21.86;80.26;98491.22;4990279;28;20198;-57
2023/06/22 03:02:57;;;;;;;7.13;5.47;;;;;;;21.91;80.84;98494.16;4990346;28;20179;-57
2023/06/22 03:05:23;;;;;;;6.43;5.93;;;;;;;21.81;80.22;98480.38;4990252;28;20214;-57
2023/06/22 03:07:48;;;;;;;6.28;5.68;;;;;;;21.83;79.79;98481.03;4990284;28;20661;-57
2023/06/22 03:10:14;;;;;;;5.72;5.32;;;;;;;21.97;79.27;98504.00;4990285;28;20191;-57
2023/06/22 03:12:41;;;;;;;7.22;5.65;;;;;;;22.05;78.96;98506.59;4990271;28;20278;-57
2023/06/22 03:15:08;;;;;;;6.07;5.57;;;;;;;21.95;78.91;98504.19;4990237;28;20278;-58
2023/06/22 03:17:35;;;;;;;6.97;5.60;;;;;;;21.98;79.00;98521.47;5021387;28;20200;-58
2023/06/22 03:20:01;;;;;;;6.20;5.60;;;;;;;21.74;79.79;98489.97;5029389;28;20205;-58
2023/06/22 03:22:26;;;;;;;6.35;5.85;;;;;;;21.79;80.06;98499.00;5029497;28;20323;-58
2023/06/22 03:24:52;;;;;;;6.18;5.55;;;;;;;21.83;79.98;98518.72;5029490;28;20174;-58
2023/06/22 03:27:18;;;;;;;9.27;6.40;;;;;;;21.77;82.88;98506.25;5021478;28;20275;-58
2023/06/22 03:29:44;;;;;;;6.90;6.20;;;;;;;21.97;82.31;98522.47;5029320;28;20623;-57
2023/06/22 03:32:10;;;;;;;7.47;6.03;;;;;;;21.89;81.60;98509.31;5044670;28;20229;-57
2023/06/22 03:34:38;;;;;;;6.50;6.00;;;;;;;22.05;80.91;98532.94;5049301;28;20184;-58
2023/06/22 03:37:04;;;;;;;7.03;6.07;;;;;;;21.91;82.09;98529.22;5052483;28;20189;-58
2023/06/22 03:39:31;;;;;;;7.60;6.75;;;;;;;21.86;83.13;98514.94;5052959;28;20196;-58
2023/06/22 03:41:57;;;;;;;6.82;6.20;;;;;;;21.89;82.33;98514.56;5052905;28;20193;-58
2023/06/22 03:44:22;;;;;;;7.72;6.43;;;;;;;22.02;84.66;98526.19;5052900;28;20188;-58
2023/06/22 03:46:47;;;;;;;7.38;6.70;;;;;;;22.16;84.17;98524.63;5052710;28;20287;-58
2023/06/22 03:49:13;;;;;;;7.80;6.78;;;;;;;22.14;82.32;98519.53;5052766;28;20682;-58
2023/06/22 03:51:39;;;;;;;6.68;6.18;;;;;;;22.19;82.81;98516.34;5052718;28;20173;-57
2023/06/22 03:54:04;;;;;;;6.95;6.35;;;;;;;22.22;81.16;98513.38;5052750;28;20181;-58
2023/06/22 03:56:29;;;;;;;7.20;6.57;;;;;;;22.27;82.50;98524.22;5052679;28;20693;-57
2023/06/22 03:58:55;;;;;;;8.68;7.70;;;;;;;22.22;84.13;98518.66;5085299;28;20673;-57
2023/06/22 04:01:20;;;;;;;11.52;8.18;;;;;;;22.28;85.19;98504.78;5095444;28;20176;-58
2023/06/22 04:03:48;;;;;;;9.80;8.18;;;;;;;22.44;84.42;98504.69;5095114;28;20259;-58
2023/06/22 04:06:13;;;;;;;9.98;8.23;;;;;;;22.69;84.54;98532.50;5095005;28;20191;-57
2023/06/22 04:08:39;;;;;;;8.63;7.82;;;;;;;22.81;84.30;98534.56;5095064;28;20537;-58
2023/06/22 04:11:05;;;;;;;9.90;8.82;;;;;;;22.72;84.16;98513.69;5094966;28;20194;-58
2023/06/22 04:13:30;;;;;;;9.55;8.10;;;;;;;22.92;83.46;98520.94;5094928;28;20176;-58
2023/06/22 04:15:55;;;;;;;9.48;8.48;;;;;;;22.97;83.17;98502.69;5072124;28;20189;-58
2023/06/22 04:18:21;;;;;;;8.35;7.55;;;;;;;23.08;81.86;98504.09;5072263;28;20192;-58
2023/06/22 04:20:46;;;;;;;9.48;8.38;;;;;;;23.25;80.75;98516.16;5072172;28;20185;-58
2023/06/22 04:23:12;;;;;;;8.60;7.30;;;;;;;23.25;79.51;98509.03;5072186;28;20330;-58
2023/06/22 04:25:38;;;;;;;7.03;6.38;;;;;;;23.43;77.81;98525.34;5072021;28;20212;-58
2023/06/22 04:28:04;;;;;;;7.97;7.28;;;;;;;23.41;78.56;98505.38;5072041;28;20176;-58
2023/06/22 04:30:31;;;;;;;8.00;7.30;;;;;;;23.43;78.88;98537.75;5071812;28;20664;-57
2023/06/22 04:32:57;;;;;;;6.95;6.25;;;;;;;23.42;77.39;98538.75;5071919;28;20168;-58
2023/06/22 04:35:23;;;;;;;5.90;5.38;;;;;;;23.38;75.81;98526.91;5051678;28;20274;-58
2023/06/22 04:37:49;;;;;;;7.18;6.57;;;;;;;23.39;75.69;98532.00;5051883;28;20227;-58
2023/06/22 04:40:15;;;;;;;5.75;5.30;;;;;;;23.45;75.86;98538.38;5051723;28;20224;-58
2023/06/22 04:42:53;;;;;;;10.95;5.85;;;;;;;23.40;76.19;98530.16;5051729;28;20185;-58
2023/06/22 04:45:19;;;;;;;6.25;5.65;;;;;;;23.54;75.68;98540.72;5051661;28;20184;-58
2023/06/22 04:47:45;;;;;;;6.60;6.00;;;;;;;23.66;76.63;98535.81;5050580;28;20284;-58
2023/06/22 04:50:12;;;;;;;11.43;9.45;;;;;;;23.55;79.95;98515.16;5051612;28;20281;-58
2023/06/22 04:52:37;;;;;;;11.30;8.48;;;;;;;23.73;79.41;98533.06;5051562;28;20208;-58
2023/06/22 04:55:03;;;;;;;19.08;10.02;;;;;;;23.85;80.92;98539.50;5051532;28;20281;-58
2023/06/22 04:57:32;;;;;;;12.38;9.18;;;;;;;24.03;80.51;98537.31;5051442;28;20616;-58
2023/06/22 05:00:11;;;;;;;16.13;9.45;;;;;;;24.22;80.36;98549.13;5051322;28;20184;-58
2023/06/22 05:02:37;;;;;;;23.00;10.35;;;;;;;24.30;80.16;98549.81;5051488;28;20647;-58
2023/06/22 05:05:06;;;;;;;20.80;10.18;;;;;;;24.37;80.28;98553.34;5051256;28;20205;-58
2023/06/22 05:07:33;;;;;;;16.35;9.40;;;;;;;24.40;79.85;98542.41;5093019;28;20238;-58
2023/06/22 05:09:58;;;;;;;14.13;10.38;;;;;;;24.37;79.17;98526.91;5093545;28;20199;-58
2023/06/22 05:12:24;;;;;;;14.57;9.88;;;;;;;24.54;79.24;98538.03;5093777;28;20710;-58
2023/06/22 05:14:49;;;;;;;17.10;9.77;;;;;;;24.71;79.20;98550.88;5093612;28;20179;-58
2023/06/22 05:17:19;;;;;;;13.02;9.18;;;;;;;24.65;77.96;98524.31;5030991;28;20271;-57
2023/06/22 05:19:48;;;;;;;11.85;9.73;;;;;;;24.80;77.53;98547.09;5031105;28;20255;-57
2023/06/22 05:22:15;;;;;;;9.98;8.98;;;;;;;24.87;77.02;98545.31;5031061;28;20200;-57
2023/06/22 05:24:41;;;;;;;11.00;8.48;;;;;;;24.93;75.25;98543.72;4991775;28;20654;-57
2023/06/22 05:27:06;;;;;;;13.82;9.20;;;;;;;25.00;75.41;98555.16;4991540;28;20222;-57
2023/06/22 05:29:32;;;;;;;17.27;8.85;;;;;;;25.08;74.97;98552.38;4991522;28;20183;-57
2023/06/22 05:31:57;;;;;;;14.57;9.10;;;;;;;25.15;74.74;98543.50;4991443;28;20297;-58
2023/06/22 05:34:23;;;;;;;16.17;9.75;;;;;;;25.19;75.37;98535.97;4991480;28;20616;-57
2023/06/22 05:36:48;;;;;;;11.73;10.48;;;;;;;25.21;74.85;98537.41;4933462;29;20201;-57
2023/06/22 05:39:14;;;;;;;13.65;9.88;;;;;;;25.25;75.27;98512.19;4933548;29;20284;-58
2023/06/22 05:41:40;;;;;;;8.18;6.13;;;;;;;25.48;69.38;98533.13;4933503;29;20197;-57
2023/06/22 05:44:06;;;;;;;7.57;6.88;;;;;;;25.28;68.85;98519.75;4933526;29;20281;-57
2023/06/22 05:46:31;;;;;;;6.10;5.60;;;;;;;25.36;68.72;98529.38;4933387;29;20742;-57
2023/06/22 05:48:57;;;;;;;7.13;6.45;;;;;;;25.36;69.05;98524.88;4979711;28;20206;-57
2023/06/22 05:51:22;;;;;;;6.45;5.75;;;;;;;25.33;68.83;98533.25;4991172;28;20191;-57
2023/06/22 05:53:49;;;;;;;10.05;7.93;;;;;;;25.38;71.79;98530.78;4991223;28;20175;-57
2023/06/22 05:56:16;;;;;;;11.68;8.95;;;;;;;25.48;72.64;98539.22;5020322;28;20229;-57
2023/06/22 05:58:41;;;;;;;11.07;9.23;;;;;;;25.58;72.46;98530.91;4990865;28;20187;-57
2023/06/22 06:01:07;;;;;;;17.88;10.73;;;;;;;25.72;72.09;98541.38;4991078;28;20277;-57
2023/06/22 06:03:32;;;;;;;16.48;11.10;;;;;;;25.69;72.49;98525.06;4990959;28;20189;-57
2023/06/22 06:05:57;;;;;;;24.42;11.57;;;;;;;25.88;72.51;98553.47;4990913;28;20202;-57
2023/06/22 06:08:23;;;;;;;19.33;11.40;;;;;;;26.01;73.11;98562.34;5020397;28;20189;-57
2023/06/22 06:10:48;;;;;;;21.17;12.73;;;;;;;25.92;73.97;98539.69;5030230;28;20185;-57
2023/06/22 06:13:14;;;;;;;15.57;11.75;;;;;;;26.05;73.86;98545.03;5030225;28;20311;-57
2023/06/22 06:15:39;;;;;;;17.25;11.38;;;;;;;26.12;73.36;98547.72;5030418;28;20186;-57
2023/06/22 06:18:06;;;;;;;14.90;10.43;;;;;;;26.15;72.78;98548.13;5030189;28;20277;-57
2023/06/22 06:20:32;;;;;;;18.90;12.77;;;;;;;25.91;74.25;98535.41;5030098;28;20218;-57
2023/06/22 06:22:57;;;;;;;20.38;11.13;;;;;;;26.08;75.25;98557.91;5010175;28;20217;-57
2023/06/22 06:25:23;;;;;;;16.35;11.40;;;;;;;25.98;74.41;98541.53;5010160;28;20194;-57
2023/06/22 06:27:50;;;;;;;14.70;10.45;;;;;;;26.15;74.15;98557.91;5010252;28;20195;-57
2023/06/22 06:30:17;;;;;;;19.10;11.98;;;;;;;26.23;72.68;98553.22;5024923;28;20189;-57
2023/06/22 06:32:45;;;;;;;15.32;11.00;;;;;;;26.36;71.65;98555.13;5029912;28;20736;-57
2023/06/22 06:35:12;;;;;;;19.45;11.55;;;;;;;26.33;71.60;98532.44;5030212;28;20182;-57
2023/06/22 06:37:39;;;;;;;14.05;10.10;;;;;;;26.32;70.71;98520.19;5029860;28;20185;-57
2023/06/22 06:40:10;;;;;;;23.42;10.73;;;;;;;26.50;70.94;98546.97;5029877;28;20186;-57
2023/06/22 06:42:41;;;;;;;11.77;9.65;;;;;;;26.67;70.10;98544.75;5026350;28;20189;-57
2023/06/22 06:45:15;;;;;;;14.18;9.35;;;;;;;26.74;68.67;98549.06;5029904;28;20177;-57
2023/06/22 06:47:41;;;;;;;9.63;7.70;;;;;;;26.85;66.53;98556.44;5029852;28;20224;-57
2023/06/22 06:50:07;;;;;;;7.40;6.55;;;;;;;26.80;64.51;98534.97;5029811;28;20212;-57
2023/06/22 06:52:32;;;;;;;8.35;6.80;;;;;;;26.94;65.42;98533.94;5029766;28;20265;-57
2023/06/22 06:54:58;;;;;;;8.43;7.20;;;;;;;27.13;64.77;98548.25;5087392;28;20278;-57
2023/06/22 06:57:26;;;;;;;9.25;8.35;;;;;;;27.24;64.16;98556.41;5092231;28;20168;-57
2023/06/22 06:59:51;;;;;;;11.80;9.70;;;;;;;27.36;64.47;98560.09;5092045;28;20672;-57
2023/06/22 07:02:17;;;;;;;12.50;9.38;;;;;;;27.48;64.26;98554.97;5092037;28;20168;-57
2023/06/22 07:04:42;;;;;;;10.10;9.00;;;;;;;27.43;63.31;98538.81;5091966;28;20180;-57
2023/06/22 07:07:07;;;;;;;13.65;9.30;;;;;;;27.62;62.90;98549.41;5091925;28;20738;-57
2023/06/22 07:09:33;;;;;;;14.52;10.43;;;;;;;27.71;62.99;98557.97;5069331;28;20191;-57
2023/06/22 07:11:58;;;;;;;11.75;10.25;;;;;;;27.81;62.47;98553.84;5072688;28;20196;-58
2023/06/22 07:14:24;;;;;;;11.75;10.27;;;;;;;27.75;62.49;98540.56;5073704;28;20188;-57
2023/06/22 07:16:49;;;;;;;13.98;10.60;;;;;;;27.73;62.38;98535.44;5073366;28;20180;-57
2023/06/22 07:19:14;;;;;;;14.43;10.80;;;;;;;27.92;62.98;98557.72;5073278;28;20666;-57
2023/06/22 07:21:40;;;;;;;14.50;11.13;;;;;;;27.98;63.00;98557.69;5073264;28;20180;-58
2023/06/22 07:24:07;;;;;;;12.68;11.32;;;;;;;27.93;64.11;98535.41;5073301;28;20188;-57
2023/06/22 07:26:33;;;;;;;13.25;10.32;;;;;;;28.02;64.32;98545.59;5073084;28;20706;-57
2023/06/22 07:28:58;;;;;;;14.55;10.32;;;;;;;28.23;63.96;98557.78;5073125;28;20230;-57
2023/06/22 07:31:25;;;;;;;12.18;10.52;;;;;;;28.34;64.79;98557.91;5072888;28;20192;-57
2023/06/22 07:33:50;;;;;;;12.75;10.43;;;;;;;28.31;65.20;98549.53;5073023;28;20181;-57
2023/06/22 07:36:17;;;;;;;11.15;10.02;;;;;;;28.30;64.50;98539.91;5073266;28;20185;-57
2023/06/22 07:38:42;;;;;;;11.23;9.77;;;;;;;28.49;64.17;98563.78;5072964;28;20642;-57
2023/06/22 07:41:08;;;;;;;9.73;8.82;;;;;;;28.51;63.46;98552.94;5089652;28;20183;-58
2023/06/22 07:43:36;;;;;;;11.23;9.38;;;;;;;28.49;64.09;98541.66;5095507;28;20184;-58
2023/06/22 07:46:05;;;;;;;12.20;9.13;;;;;;;28.65;63.26;98557.94;5095402;28;20290;-57
2023/06/22 07:48:30;;;;;;;11.93;9.60;;;;;;;28.75;62.94;98576.91;5095455;28;20547;-57
2023/06/22 07:50:55;;;;;;;10.05;8.82;;;;;;;28.67;62.29;98553.22;5095332;28;20178;-57
2023/06/22 07:53:21;;;;;;;9.07;8.27;;;;;;;28.74;61.00;98551.31;5095383;28;20179;-57
2023/06/22 07:55:47;;;;;;;9.65;8.65;;;;;;;28.78;60.64;98544.53;5094876;28;20176;-57
2023/06/22 07:58:13;;;;;;;11.82;8.70;;;;;;;28.95;60.54;98569.63;5095555;28;20237;-58
2023/06/22 08:00:38;;;;;;;8.40;7.70;;;;;;;28.93;59.78;98563.66;5095271;28;20531;-57
2023/06/22 08:03:04;;;;;;;10.18;8.57;;;;;;;28.96;59.79;98565.94;5095431;28;20622;-58
2023/06/22 08:05:30;;;;;;;8.93;8.02;;;;;;;28.91;59.00;98562.28;5094702;28;20228;-57
2023/06/22 08:07:56;;;;;;;9.88;7.72;;;;;;;28.81;58.90;98545.94;5095075;28;20661;-57
2023/06/22 08:10:22;;;;;;;9.88;7.07;;;;;;;28.94;58.66;98559.97;5095021;28;20176;-56
2023/06/22 08:12:47;;;;;;;13.57;8.32;;;;;;;28.99;58.65;98556.69;5052211;28;20200;-56
2023/06/22 08:15:12;;;;;;;9.27;7.57;;;;;;;29.07;57.56;98565.22;5052540;28;20656;-56
2023/06/22 08:17:39;;;;;;;8.18;7.10;;;;;;;29.05;55.37;98546.00;5052213;28;20288;-56
2023/06/22 08:20:12;;;;;;;7.10;6.47;;;;;;;29.10;53.53;98543.47;5052297;28;20560;-58
2023/06/22 08:22:38;;;;;;;6.93;6.32;;;;;;;29.19;51.36;98547.47;5052192;28;20200;-56
2023/06/22 08:25:04;;;;;;;6.70;6.10;;;;;;;29.15;52.86;98527.63;5052147;28;20177;-57
2023/06/22 08:27:33;;;;;;;7.05;6.32;;;;;;;29.30;52.10;98545.94;5052114;28;20235;-57
2023/06/22 08:30:00;;;;;;;7.70;6.50;;;;;;;29.38;52.84;98545.66;5052330;28;20216;-57
2023/06/22 08:32:27;;;;;;;6.18;5.68;;;;;;;29.45;51.02;98555.22;5051887;28;20726;-57
2023/06/22 08:34:54;;;;;;;7.20;6.32;;;;;;;29.45;51.08;98549.88;5051789;28;20182;-59
2023/06/22 08:37:20;;;;;;;6.80;5.78;;;;;;;29.39;50.46;98545.44;5052101;28;20185;-56
2023/06/22 08:39:46;;;;;;;6.20;5.70;;;;;;;29.40;51.78;98552.41;5051798;28;20199;-57
2023/06/22 08:42:11;;;;;;;6.82;6.10;;;;;;;29.37;51.43;98530.69;5051769;28;20272;-58
2023/06/22 08:44:37;;;;;;;6.63;6.13;;;;;;;29.40;49.51;98528.41;5087762;28;20730;-57
2023/06/22 08:47:03;;;;;;;6.80;6.20;;;;;;;29.61;49.77;98553.88;5094244;28;20202;-57
2023/06/22 08:49:29;;;;;;;7.15;6.30;;;;;;;29.48;49.65;98524.63;5094053;28;20207;-57
2023/06/22 08:51:56;;;;;;;6.68;5.97;;;;;;;29.56;48.86;98541.19;5094170;28;20191;-57
2023/06/22 08:54:22;;;;;;;6.70;6.13;;;;;;;29.74;47.47;98543.84;5094131;28;20172;-57
2023/06/22 08:56:47;;;;;;;7.35;6.15;;;;;;;29.70;47.58;98532.00;5094395;28;20187;-56
2023/06/22 08:59:12;;;;;;;6.55;5.88;;;;;;;29.75;46.69;98540.16;5094072;28;20228;-56
2023/06/22 09:01:38;;;;;;;6.25;5.75;;;;;;;29.85;43.78;98551.09;5093715;28;20304;-57
2023/06/22 09:04:05;;;;;;;8.40;6.05;;;;;;;29.91;44.70;98550.22;5094031;28;20171;-57
2023/06/22 09:06:31;;;;;;;8.00;5.13;;;;;;;29.95;45.64;98551.41;5093853;28;20252;-57
2023/06/22 09:08:59;;;;;;;5.90;5.40;;;;;;;29.94;43.74;98549.78;5093926;28;20304;-57
2023/06/22 09:11:25;;;;;;;6.07;5.57;;;;;;;29.86;45.11;98531.38;5093859;28;20183;-57
2023/06/22 09:13:51;;;;;;;6.80;6.20;;;;;;;29.94;45.12;98547.09;5093823;28;20533;-57
2023/06/22 09:16:17;;;;;;;9.93;5.85;;;;;;;29.96;45.92;98534.34;5093735;28;20607;-57
2023/06/22 09:18:42;;;;;;;6.20;5.60;;;;;;;29.97;46.36;98527.97;5093701;28;20168;-57
2023/06/22 09:21:08;;;;;;;6.50;5.90;;;;;;;30.15;45.16;98535.97;5093661;28;20191;-56
2023/06/22 09:23:33;;;;;;;7.68;6.18;;;;;;;30.15;44.44;98521.81;5093633;28;20172;-56
2023/06/22 09:25:59;;;;;;;6.63;6.05;;;;;;;30.27;43.84;98523.50;5093504;28;20276;-56
2023/06/22 09:28:24;;;;;;;6.15;5.60;;;;;;;30.41;44.72;98542.78;5093567;28;20554;-58
2023/06/22 09:30:50;;;;;;;6.45;5.95;;;;;;;30.50;44.92;98541.44;5093370;28;20621;-58
2023/06/22 09:33:15;;;;;;;8.88;6.18;;;;;;;30.46;44.53;98529.56;5092929;28;20164;-58
2023/06/22 09:35:41;;;;;;;8.07;6.20;;;;;;;30.55;43.78;98522.88;5093366;28;20664;-58
2023/06/22 09:38:06;;;;;;;6.90;6.10;;;;;;;30.73;42.70;98549.53;5093398;28;20206;-58
2023/06/22 09:40:35;;;;;;;6.07;5.57;;;;;;;30.72;40.17;98522.00;5050619;28;20200;-58
2023/06/22 09:43:00;;;;;;;6.72;6.13;;;;;;;30.83;41.64;98529.22;5010864;28;20723;-58
2023/06/22 09:45:26;;;;;;;7.63;6.28;;;;;;;30.87;42.23;98525.03;5011221;28;20182;-58
2023/06/22 09:47:51;;;;;;;8.13;6.20;;;;;;;31.08;42.94;98547.72;5010871;28;20655;-58
2023/06/22 09:50:17;;;;;;;9.00;6.22;;;;;;;31.06;42.10;98523.09;5010919;28;20183;-57
2023/06/22 09:52:44;;;;;;;7.18;5.88;;;;;;;31.17;41.80;98533.78;5010857;28;20190;-58
2023/06/22 09:55:10;;;;;;;7.35;5.60;;;;;;;31.21;42.79;98536.81;5010775;28;20277;-57
2023/06/22 09:57:35;;;;;;;9.35;5.80;;;;;;;31.25;42.34;98528.09;5010787;28;20281;-57
2023/06/22 10:00:01;;;;;;;6.47;5.88;;;;;;;31.15;41.94;98509.13;5010774;28;20182;-56
2023/06/22 10:02:26;;;;;;;7.18;6.38;;;;;;;31.35;41.27;98531.00;5010732;28;20252;-57
2023/06/22 10:04:51;;;;;;;6.78;6.07;;;;;;;31.21;41.63;98526.97;5010715;28;20185;-56
2023/06/22 10:07:17;;;;;;;6.20;5.60;;;;;;;31.25;40.70;98538.00;5010517;28;20225;-57
2023/06/22 10:09:42;;;;;;;5.82;5.30;;;;;;;31.32;39.32;98534.16;5010567;28;20306;-56
2023/06/22 10:12:08;;;;;;;5.90;5.30;;;;;;;31.23;39.69;98514.16;5025497;28;20325;-56
2023/06/22 10:14:33;;;;;;;8.43;5.97;;;;;;;31.51;40.28;98534.81;5076279;28;20179;-56
2023/06/22 10:16:59;;;;;;;6.22;5.68;;;;;;;31.61;40.09;98532.38;5092664;28;20187;-57
2023/06/22 10:19:24;;;;;;;7.78;5.70;;;;;;;31.74;41.12;98534.81;5092315;28;20258;-57
2023/06/22 10:21:50;;;;;;;7.85;5.93;;;;;;;31.69;40.19;98508.72;5092303;28;20236;-57
2023/06/22 10:24:15;;;;;;;6.95;5.65;;;;;;;31.81;40.16;98506.03;5092563;28;20168;-57
2023/06/22 10:26:41;;;;;;;6.05;5.47;;;;;;;32.04;39.41;98536.25;5092468;28;20199;-57
2023/06/22 10:29:06;;;;;;;6.40;5.57;;;;;;;32.04;38.81;98512.16;5092522;28;20179;-57
2023/06/22 10:31:31;;;;;;;5.57;5.10;;;;;;;32.31;38.07;98531.97;5092341;28;20199;-57
2023/06/22 10:33:57;;;;;;;6.55;5.95;;;;;;;32.44;38.48;98533.53;5049682;28;20775;-57
2023/06/22 10:36:23;;;;;;;8.15;5.90;;;;;;;32.47;37.47;98516.97;5049785;28;20339;-57
2023/06/22 10:38:49;;;;;;;6.00;5.50;;;;;;;32.49;37.07;98504.97;5049736;28;20608;-57
2023/06/22 10:41:15;;;;;;;8.07;5.80;;;;;;;32.65;37.41;98524.78;5049779;28;20189;-57
2023/06/22 10:43:40;;;;;;;5.95;5.25;;;;;;;32.55;37.39;98516.56;5049782;28;20189;-57
2023/06/22 10:46:06;;;;;;;5.93;5.38;;;;;;;32.35;37.91;98498.28;5048767;28;20204;-57
2023/06/22 10:48:32;;;;;;;7.80;5.68;;;;;;;32.34;37.05;98507.38;5049661;28;20197;-57
2023/06/22 10:50:57;;;;;;;5.85;5.25;;;;;;;32.57;36.30;98515.28;5049705;28;20185;-57
2023/06/22 10:53:23;;;;;;;7.47;5.63;;;;;;;32.77;37.15;98512.16;5049619;28;20326;-57
2023/06/22 10:55:49;;;;;;;5.88;5.28;;;;;;;32.64;35.72;98499.84;5049535;28;20284;-57
2023/06/22 10:58:14;;;;;;;5.30;4.97;;;;;;;32.85;36.01;98492.97;5049621;28;20715;-57
2023/06/22 11:00:39;;;;;;;6.00;5.50;;;;;;;33.06;35.61;98498.38;5049465;28;20671;-57
2023/06/22 11:03:05;;;;;;;6.25;5.63;;;;;;;33.24;36.00;98490.09;5049543;28;20589;-59
2023/06/22 11:05:32;;;;;;;6.25;5.63;;;;;;;33.52;34.78;98489.94;5064306;28;20334;-56
2023/06/22 11:07:57;;;;;;;6.80;5.85;;;;;;;33.69;34.32;98492.59;5069528;28;20185;-56
2023/06/22 11:10:22;;;;;;;5.63;5.22;;;;;;;33.84;34.36;98498.16;5069520;28;20199;-57
2023/06/22 11:12:48;;;;;;;6.47;5.60;;;;;;;33.91;34.61;98499.59;5069502;28;20272;-57
2023/06/22 11:15:13;;;;;;;8.40;5.85;;;;;;;33.95;34.66;98481.91;5069520;28;20188;-58
2023/06/22 11:17:39;;;;;;;6.30;5.70;;;;;;;34.21;34.59;98499.13;5069429;28;20176;-61
2023/06/22 11:20:11;;;;;;;7.45;5.20;;;;;;;34.13;34.06;98496.88;5069515;28;20193;-58
2023/06/22 11:22:40;;;;;;;6.45;5.95;;;;;;;34.14;33.58;98499.31;5069514;28;20172;-58
2023/06/22 11:25:06;;;;;;;8.20;6.20;;;;;;;34.13;34.73;98486.94;5069350;28;20183;-56
2023/06/22 11:27:32;;;;;;;6.40;5.78;;;;;;;34.00;33.15;98487.34;5029174;28;20904;-58
2023/06/22 11:29:57;;;;;;;7.10;5.40;;;;;;;33.94;34.97;98488.38;5029213;28;20290;-57